Main page


Airports :

Almería, Spain

Almería Airport

latitude: 36-51N, longitude: 002-23W, elevation: 15 m

Current weather observation

The report was made 16 minutes ago, at 23:00 UTC
Wind 5 kt from the North/Northwest
Temperature 8°C
Humidity 76%
Pressure 1020 hPa
Visibility 10 km or more

METAR: LEAM 222300Z AUTO 33005KT 9999 NCD 08/04 Q1020

Time: 00:16 (23:16 UTC)


The report was made 3 hours and 16 minutes ago, at 20:00 UTC
Forecast valid from 22 at 21 UTC to 23 at 21 UTC
Wind 8 kt from the North/Northwest
Visibility 10 km or more
no clouds below 1500 m and no cumulonimbus
from 23 at 09 UTC to 23 at 11 UTC
Wind 12 kt from the Southwest

TAF: LEAM 222000Z 2221/2321 34008KT CAVOK TX18/2313Z TN07/2306Z BECMG 2309/2311 23012KT

Weather observations and forecasts of more than 4000 airports (METAR and TAF reports).

The available stations are represented by yellow and red dots on the map.

Hover mouse over dot to see the name of the station.

Then click to see weather observations and forecasts.

To change the map : click on the green buttons with a black cross to zoom in, on the green button with a dash to zoom out, or on the green arrows for adjacent maps.